»·PEaware :: N441PW KSEA-CYYC

N441PW :: KSEA-CYYC

FLIGHT INFORMATION

Flight Status: Arrived
Operator: Privately registered:
United States
More flights under this callsign
Pilot: Stacy K. (11621)
Aircraft: CESSNA 404 TITAN
(C404)
More flights by this aircraft type
Origin: KSEA Seattle-Tacoma Intl
United States
Destination: CYYC Calgary Intl
Canada
More flights between these airports :: More routes between these airports
Route: +SEA YDC YK YXC YBW
File this flight plan on PilotEdge
Remarks:
Altitude:
(Current/Filed)
15,000ft
Speed:
(Current/Filed)
160kts
Departed: 12-Apr-18 06:29 AM
Arrived: 12-Apr-18 09:08 AM
Distance/Time
Traveled:
391nm/2:39
Distance/Time
To Go:
Arrived

Flight Plot

Page will automatically refresh every two minutes.

Flight plan parsing failed; only flown route is shown


Map Options




Map Legend


Flown Route
Filed Route
Departure Airport
Arrival Airport
Navaid (VOR, NDB)
Fix

Horizontal Profiles

Position Reports

Time Latitude Longitude Heading Altitude Ground
Speed
12-Apr-18 06:24 47.438298 -122.315247 0 437ft 0kts
12-Apr-18 06:25 47.438298 -122.315247 0 437ft 0kts
12-Apr-18 06:26 47.438299 -122.315247 0 437ft 0kts
12-Apr-18 06:27 47.440700 -122.313580 358 437ft 36kts
12-Apr-18 06:28 47.451787 -122.313534 0 437ft 43kts
12-Apr-18 06:29 47.463019 -122.313427 355 437ft 29kts
12-Apr-18 06:30 47.463700 -122.315820 269 437ft 0kts
12-Apr-18 06:31 47.452654 -122.317845 177 662ft 96kts
12-Apr-18 06:32 47.422406 -122.316289 209 2020ft 132kts
12-Apr-18 06:33 47.423752 -122.370281 325 3089ft 167kts
12-Apr-18 06:34 47.470295 -122.377793 0 4109ft 172kts
12-Apr-18 06:35 47.512300 -122.369288 39 5000ft 174kts
12-Apr-18 06:36 47.541113 -122.313521 53 5989ft 176kts
12-Apr-18 06:37 47.569995 -122.254705 52 6989ft 177kts
12-Apr-18 06:38 47.599356 -122.195728 51 7990ft 178kts
12-Apr-18 06:39 47.629368 -122.137829 45 8987ft 175kts
12-Apr-18 06:40 47.666154 -122.091618 32 9982ft 172kts
12-Apr-18 06:41 47.705664 -122.051813 29 10978ft 171kts
12-Apr-18 06:42 47.745662 -122.013052 28 11984ft 175kts
12-Apr-18 06:43 47.787306 -121.972878 29 12985ft 181kts
12-Apr-18 06:44 47.826629 -121.934912 30 13631ft 194kts
12-Apr-18 06:45 47.872666 -121.890324 31 14335ft 199kts
12-Apr-18 06:46 47.919363 -121.845013 31 15034ft 201kts
12-Apr-18 06:47 47.967301 -121.798414 32 15494ft 212kts
12-Apr-18 06:48 48.018274 -121.748750 33 15493ft 223kts
12-Apr-18 06:49 48.070395 -121.697843 35 15493ft 223kts
12-Apr-18 06:50 48.122411 -121.646875 35 15492ft 223kts
12-Apr-18 06:51 48.174550 -121.595682 35 15499ft 224kts
12-Apr-18 06:52 48.226678 -121.544381 35 15501ft 224kts
12-Apr-18 06:53 48.278202 -121.493550 35 15497ft 224kts
12-Apr-18 06:54 48.326007 -121.446276 35 15476ft 224kts
12-Apr-18 06:55 48.378248 -121.394494 35 15456ft 225kts
12-Apr-18 06:56 48.430423 -121.342629 35 15443ft 224kts
12-Apr-18 06:57 48.482595 -121.290645 35 15429ft 224kts
12-Apr-18 06:58 48.534528 -121.238786 36 15420ft 224kts
12-Apr-18 06:59 48.586521 -121.186729 36 15413ft 224kts
12-Apr-18 07:00 48.638623 -121.134428 36 15404ft 224kts
12-Apr-18 07:01 48.690480 -121.082264 35 15398ft 223kts
12-Apr-18 07:02 48.742277 -121.030016 35 15374ft 224kts
12-Apr-18 07:03 48.794106 -120.977598 35 15367ft 224kts
12-Apr-18 07:04 48.845402 -120.925609 35 15491ft 221kts
12-Apr-18 07:05 48.896827 -120.873299 36 15493ft 223kts
12-Apr-18 07:06 48.948502 -120.820650 35 15490ft 223kts
12-Apr-18 07:07 49.000161 -120.767899 36 15480ft 223kts
12-Apr-18 07:22 49.373518 -119.687388 93 15496ft 209kts
12-Apr-18 07:23 49.372149 -119.597806 93 15495ft 209kts
12-Apr-18 07:24 49.370715 -119.508403 93 15494ft 209kts
12-Apr-18 07:25 49.379262 -119.419549 82 15494ft 211kts
12-Apr-18 07:26 49.386569 -119.330264 85 15499ft 210kts
12-Apr-18 07:27 49.393323 -119.240898 85 15497ft 211kts
12-Apr-18 07:28 49.400090 -119.151438 85 15495ft 210kts
12-Apr-18 07:29 49.406835 -119.062366 85 15491ft 210kts
12-Apr-18 07:30 49.413775 -118.973094 85 15487ft 210kts
12-Apr-18 07:31 49.420719 -118.883872 85 15483ft 210kts
12-Apr-18 07:32 49.427790 -118.794491 85 15385ft 213kts
12-Apr-18 07:33 49.434808 -118.703388 85 14750ft 216kts
12-Apr-18 07:34 49.441638 -118.610668 85 13915ft 222kts
12-Apr-18 07:35 49.448028 -118.515857 85 12916ft 223kts
12-Apr-18 07:36 49.453166 -118.429927 85 12013ft 224kts
12-Apr-18 07:37 49.457541 -118.334025 85 11016ft 225kts
12-Apr-18 07:38 49.461265 -118.240919 85 10006ft 207kts
12-Apr-18 07:39 49.461984 -118.152778 95 8797ft 205kts
12-Apr-18 07:40 49.445544 -118.070122 119 7591ft 202kts
12-Apr-18 07:41 49.413288 -118.000074 129 6395ft 199kts
12-Apr-18 07:42 49.376582 -117.940777 135 5225ft 192kts
12-Apr-18 07:43 49.341676 -117.881186 112 4101ft 183kts
12-Apr-18 07:44 49.340237 -117.821270 81 3749ft 168kts
12-Apr-18 07:45 49.340204 -117.747454 92 3085ft 164kts
12-Apr-18 07:46 49.354891 -117.678986 12 3467ft 162kts
12-Apr-18 07:47 49.400009 -117.661317 50 3480ft 174kts
12-Apr-18 07:48 49.430248 -117.601145 50 3465ft 180kts
12-Apr-18 07:49 49.425052 -117.540982 187 3396ft 182kts
12-Apr-18 07:50 49.376744 -117.556166 198 3465ft 182kts
12-Apr-18 07:51 49.336573 -117.602961 235 2460ft 164kts
12-Apr-18 07:52 49.312165 -117.637349 187 1836ft 126kts
12-Apr-18 07:53 49.295469 -117.632240 345 1604ft 9kts
12-Apr-18 07:54 49.296281 -117.634397 256 1604ft 0kts
12-Apr-18 07:55 49.296280 -117.634397 256 1604ft 0kts
12-Apr-18 07:56 49.296280 -117.634397 256 1604ft 0kts
12-Apr-18 07:57 49.296280 -117.634398 256 1604ft 0kts
12-Apr-18 07:58 49.296280 -117.634398 256 1604ft 0kts
12-Apr-18 07:59 49.296759 -117.633769 67 1604ft 3kts
12-Apr-18 08:00 49.298077 -117.633023 346 1604ft 22kts
12-Apr-18 08:01 49.302358 -117.634239 350 1604ft 18kts
12-Apr-18 08:02 49.285002 -117.631644 184 1945ft 129kts
12-Apr-18 08:03 49.246382 -117.641847 184 3232ft 158kts
12-Apr-18 08:04 49.199586 -117.638391 172 4267ft 175kts
12-Apr-18 08:05 49.163304 -117.594137 120 5275ft 175kts
12-Apr-18 08:06 49.176783 -117.530851 47 6302ft 171kts
12-Apr-18 08:07 49.208726 -117.475970 49 7309ft 174kts
12-Apr-18 08:08 49.239988 -117.418988 49 8307ft 176kts
12-Apr-18 08:09 49.272469 -117.359105 49 9081ft 187kts
12-Apr-18 08:10 49.305195 -117.295310 52 9791ft 191kts
12-Apr-18 08:11 49.337112 -117.230039 54 10488ft 192kts
12-Apr-18 08:12 49.368295 -117.163230 56 11189ft 192kts
12-Apr-18 08:13 49.397860 -117.094872 63 11889ft 191kts
12-Apr-18 08:14 49.416904 -117.019199 77 12588ft 189kts
12-Apr-18 08:15 49.429931 -116.941043 80 13289ft 188kts
12-Apr-18 08:16 49.441714 -116.863298 81 13987ft 187kts
12-Apr-18 08:17 49.453195 -116.785759 82 14683ft 185kts
12-Apr-18 08:18 49.464477 -116.709114 82 15357ft 183kts
12-Apr-18 08:19 49.470782 -116.665758 83 15499ft 192kts
12-Apr-18 08:20 49.482858 -116.582189 82 15496ft 202kts
12-Apr-18 08:21 49.493057 -116.512065 83 15527ft 202kts
12-Apr-18 08:22 49.505303 -116.427252 83 15528ft 203kts
12-Apr-18 08:23 49.517476 -116.342602 83 15524ft 203kts
12-Apr-18 08:24 49.529685 -116.257551 83 15497ft 203kts
12-Apr-18 08:25 49.541840 -116.172516 83 15497ft 203kts
12-Apr-18 08:26 49.559233 -116.090181 52 15502ft 213kts
12-Apr-18 08:27 49.606336 -116.032536 39 15499ft 218kts
12-Apr-18 08:28 49.650341 -115.985115 39 15501ft 218kts
12-Apr-18 08:29 49.694305 -115.938262 39 15501ft 218kts
12-Apr-18 08:30 49.744270 -115.885035 39 15503ft 218kts
12-Apr-18 08:31 49.794341 -115.831597 39 15498ft 218kts
12-Apr-18 08:32 49.844338 -115.778112 39 15499ft 218kts
12-Apr-18 08:33 49.894164 -115.724681 39 15523ft 217kts
12-Apr-18 08:34 49.943828 -115.671281 39 15533ft 217kts
12-Apr-18 08:35 49.993673 -115.617556 39 15543ft 217kts
12-Apr-18 08:36 50.042827 -115.564432 37 15511ft 215kts
12-Apr-18 08:37 50.091850 -115.511365 37 15507ft 213kts
12-Apr-18 08:38 50.140355 -115.458701 37 15513ft 212kts
12-Apr-18 08:39 50.188900 -115.405845 37 15518ft 212kts
12-Apr-18 08:40 50.237260 -115.353051 37 15521ft 212kts
12-Apr-18 08:41 50.284859 -115.300957 37 15524ft 212kts
12-Apr-18 08:42 50.333275 -115.247838 37 15526ft 212kts
12-Apr-18 08:43 50.381771 -115.194492 37 15528ft 212kts
12-Apr-18 08:44 50.430114 -115.141184 37 15530ft 213kts
12-Apr-18 08:45 50.478626 -115.087559 37 15532ft 213kts
12-Apr-18 08:46 50.526950 -115.033990 37 15535ft 213kts
12-Apr-18 08:47 50.577255 -114.977926 38 14925ft 228kts
12-Apr-18 08:48 50.630334 -114.918756 38 13933ft 235kts
12-Apr-18 08:49 50.683605 -114.859054 39 12934ft 232kts
12-Apr-18 08:50 50.735746 -114.800787 39 11936ft 228kts
12-Apr-18 08:51 50.786337 -114.743913 39 10937ft 220kts
12-Apr-18 08:52 50.835306 -114.689025 38 9934ft 209kts
12-Apr-18 08:53 50.881967 -114.636534 37 8939ft 203kts
12-Apr-18 08:54 50.927439 -114.585130 38 7934ft 199kts
12-Apr-18 08:55 50.972394 -114.534069 37 6935ft 198kts
12-Apr-18 08:56 51.016183 -114.485901 36 6491ft 184kts
12-Apr-18 08:57 51.059389 -114.438833 37 6489ft 188kts
12-Apr-18 08:58 51.102203 -114.390741 37 6489ft 188kts
12-Apr-18 08:59 51.145264 -114.342221 37 6497ft 189kts
12-Apr-18 09:00 51.175210 -114.279651 27 6479ft 188kts
12-Apr-18 09:01 51.226931 -114.257859 15 5815ft 193kts
12-Apr-18 09:02 51.244568 -114.200804 114 5507ft 163kts
12-Apr-18 09:03 51.225405 -114.133661 115 5215ft 176kts
12-Apr-18 09:04 51.204529 -114.061733 116 4813ft 176kts
12-Apr-18 09:05 51.173280 -114.018302 198 4383ft 159kts
12-Apr-18 09:06 51.135872 -114.021093 176 3702ft 113kts
12-Apr-18 09:07 51.115020 -114.021556 217 3561ft 22kts
12-Apr-18 09:08 51.114797 -114.022561 268 3561ft 0kts
12-Apr-18 09:09 51.111719 -114.024708 179 3561ft 21kts
12-Apr-18 09:10 51.107627 -114.025328 188 3561ft 14kts
12-Apr-18 09:11 51.102993 -114.026409 178 3561ft 15kts
12-Apr-18 09:12 51.100879 -114.027565 186 3561ft 0kts
12-Apr-18 09:13 51.100879 -114.027566 186 3561ft 0kts
12-Apr-18 09:14 51.100879 -114.027566 186 3561ft 0kts
12-Apr-18 09:15 51.100879 -114.027566 186 3561ft 0kts
12-Apr-18 09:16 51.100879 -114.027566 186 3561ft 0kts
12-Apr-18 09:17 51.100879 -114.027566 186 3561ft 0kts
12-Apr-18 09:18 51.100879 -114.027566 186 3561ft 0kts

Navigation Log

Ident Type
Flight plan parsing failed, navigation log unavailable